ENT7CB EPKT-LGRP
Flight info
| Callsign | ENT7CB |
|---|---|
| Flight time | 2h 23m |
| Altitude | 23000 |
| Route | REGTO T195 RAZEC N133 KEKED/N0442F390 DCT PERIT DCT NARKA DCT LOMOS DCT NIKTI DCT MES UN139 LURUS UL995 CODIC |
| Aircraft | B738/M-DFGHIJ1LORVWXY/EB1 |
Departure
| Time | 2026-05-04 13:59 |
|---|---|
| Airport | Katowice Wojciech Korfanty International Airport (EPKT) |
Arrival
| Time | 2026-05-04 16:22 |
|---|---|
| Airport | Rhodes International Airport "Diagoras" (LGRP) |
| Time | Latitude | Longitude | Altitude | Speed | Heading |
|---|---|---|---|---|---|
| 2026-05-04 13:25 | 50.47181 | 19.07407 | 985 ft | 0 kts | 180° |
| 2026-05-04 13:51 | 50.47187 | 19.07407 | 993 ft | 2 kts | 180° |
| 2026-05-04 13:51 | 50.47207 | 19.07406 | 993 ft | 3 kts | 174° |
| 2026-05-04 13:52 | 50.47235 | 19.07388 | 995 ft | 2 kts | 94° |
| 2026-05-04 13:52 | 50.47235 | 19.07383 | 993 ft | 1 kts | 90° |
| 2026-05-04 13:54 | 50.47235 | 19.07411 | 992 ft | 9 kts | 90° |
| 2026-05-04 13:54 | 50.47233 | 19.07813 | 997 ft | 20 kts | 90° |
| 2026-05-04 13:55 | 50.47233 | 19.08031 | 1001 ft | 20 kts | 90° |
| 2026-05-04 13:55 | 50.47232 | 19.08471 | 1003 ft | 22 kts | 90° |
| 2026-05-04 13:55 | 50.47231 | 19.08713 | 1003 ft | 22 kts | 90° |
| 2026-05-04 13:56 | 50.47231 | 19.08948 | 1005 ft | 21 kts | 90° |
| 2026-05-04 13:56 | 50.47231 | 19.09178 | 1007 ft | 22 kts | 90° |
| 2026-05-04 13:56 | 50.47230 | 19.09732 | 1011 ft | 25 kts | 90° |
| 2026-05-04 13:57 | 50.47232 | 19.09993 | 1013 ft | 23 kts | 78° |
| 2026-05-04 13:57 | 50.47322 | 19.10195 | 1014 ft | 22 kts | 52° |
| 2026-05-04 13:58 | 50.47596 | 19.10275 | 1015 ft | 14 kts | 270° |
| 2026-05-04 13:58 | 50.47597 | 19.09081 | 1006 ft | 121 kts | 270° |
| 2026-05-04 13:58 | 50.47607 | 19.07446 | 1036 ft | 173 kts | 268° |
| 2026-05-04 13:59 | 50.47637 | 19.05564 | 1901 ft | 167 kts | 266° |
| 2026-05-04 13:59 | 50.47656 | 19.03781 | 2836 ft | 166 kts | 265° |
| 2026-05-04 13:59 | 50.47668 | 18.99586 | 3839 ft | 211 kts | 265° |
| 2026-05-04 14:00 | 50.47252 | 18.97343 | 4103 ft | 233 kts | 236° |
| 2026-05-04 14:00 | 50.44875 | 18.93892 | 5487 ft | 236 kts | 206° |
| 2026-05-04 14:00 | 50.43189 | 18.93381 | 5959 ft | 265 kts | 180° |
| 2026-05-04 14:01 | 50.41347 | 18.93610 | 6756 ft | 265 kts | 180° |
| 2026-05-04 14:01 | 50.39504 | 18.93715 | 7656 ft | 265 kts | 181° |
| 2026-05-04 14:01 | 50.35775 | 18.93750 | 9337 ft | 271 kts | 183° |
| 2026-05-04 14:02 | 50.33876 | 18.93742 | 10133 ft | 274 kts | 183° |
| 2026-05-04 14:02 | 50.31908 | 18.93761 | 10500 ft | 295 kts | 178° |
| 2026-05-04 14:02 | 50.29871 | 18.94780 | 10788 ft | 323 kts | 152° |
| 2026-05-04 14:02 | 50.28219 | 18.97284 | 11407 ft | 341 kts | 129° |
| 2026-05-04 14:03 | 50.26824 | 19.00305 | 12143 ft | 345 kts | 131° |
| 2026-05-04 14:03 | 50.25333 | 19.03258 | 12960 ft | 347 kts | 133° |
| 2026-05-04 14:03 | 50.23828 | 19.06174 | 13771 ft | 350 kts | 133° |
| 2026-05-04 14:03 | 50.22286 | 19.09159 | 14474 ft | 355 kts | 133° |
| 2026-05-04 14:04 | 50.19142 | 19.15267 | 15854 ft | 366 kts | 132° |
| 2026-05-04 14:04 | 50.17546 | 19.18395 | 16580 ft | 370 kts | 132° |
| 2026-05-04 14:04 | 50.15927 | 19.21569 | 17304 ft | 375 kts | 132° |
| 2026-05-04 14:05 | 50.12667 | 19.27981 | 18646 ft | 384 kts | 131° |
| 2026-05-04 14:05 | 50.11000 | 19.31259 | 19307 ft | 386 kts | 131° |
| 2026-05-04 14:05 | 50.09327 | 19.34545 | 19980 ft | 389 kts | 131° |
| 2026-05-04 14:06 | 50.07639 | 19.37856 | 20633 ft | 392 kts | 131° |
| 2026-05-04 14:06 | 50.05936 | 19.41195 | 21240 ft | 396 kts | 130° |
| 2026-05-04 14:06 | 50.04217 | 19.44559 | 21827 ft | 399 kts | 130° |
| 2026-05-04 14:06 | 50.02472 | 19.47963 | 22425 ft | 403 kts | 130° |
| 2026-05-04 14:07 | 50.00741 | 19.51337 | 23014 ft | 406 kts | 130° |
| 2026-05-04 14:07 | 49.99077 | 19.54575 | 23570 ft | 409 kts | 130° |
| 2026-05-04 14:07 | 49.97296 | 19.58040 | 24048 ft | 412 kts | 130° |
| 2026-05-04 14:07 | 49.95495 | 19.61539 | 24478 ft | 417 kts | 130° |
| 2026-05-04 14:08 | 49.93679 | 19.65064 | 24939 ft | 419 kts | 130° |
| 2026-05-04 14:08 | 49.91842 | 19.68623 | 25361 ft | 423 kts | 130° |
| 2026-05-04 14:08 | 49.89991 | 19.72205 | 25782 ft | 427 kts | 130° |
| 2026-05-04 14:08 | 49.88124 | 19.75812 | 26230 ft | 430 kts | 130° |
| 2026-05-04 14:09 | 49.84347 | 19.83096 | 27055 ft | 437 kts | 130° |
| 2026-05-04 14:09 | 49.82436 | 19.86774 | 27487 ft | 439 kts | 129° |
| 2026-05-04 14:10 | 49.78586 | 19.94164 | 28271 ft | 445 kts | 129° |
| 2026-05-04 14:10 | 49.76636 | 19.97901 | 28651 ft | 448 kts | 129° |
| 2026-05-04 14:10 | 49.74661 | 20.01683 | 29057 ft | 450 kts | 129° |
| 2026-05-04 14:10 | 49.72711 | 20.05409 | 29450 ft | 452 kts | 129° |
| 2026-05-04 14:11 | 49.70723 | 20.09202 | 29829 ft | 455 kts | 129° |
| 2026-05-04 14:11 | 49.66719 | 20.16824 | 30502 ft | 459 kts | 129° |
| 2026-05-04 14:11 | 49.64704 | 20.20651 | 30813 ft | 461 kts | 129° |
| 2026-05-04 14:12 | 49.62678 | 20.24495 | 31101 ft | 462 kts | 129° |
| 2026-05-04 14:12 | 49.61300 | 20.27106 | 31319 ft | 463 kts | 129° |
| 2026-05-04 14:12 | 49.57232 | 20.34800 | 31870 ft | 467 kts | 129° |
| 2026-05-04 14:13 | 49.55175 | 20.38679 | 32249 ft | 466 kts | 129° |
| 2026-05-04 14:13 | 49.53127 | 20.42538 | 32674 ft | 464 kts | 129° |
| 2026-05-04 14:13 | 49.51080 | 20.46390 | 33040 ft | 463 kts | 129° |
| 2026-05-04 14:13 | 49.49032 | 20.50237 | 33342 ft | 464 kts | 129° |
| 2026-05-04 14:14 | 49.47011 | 20.54030 | 33684 ft | 464 kts | 129° |
| 2026-05-04 14:14 | 49.42933 | 20.61668 | 34376 ft | 462 kts | 128° |
| 2026-05-04 14:14 | 49.40888 | 20.65486 | 34645 ft | 461 kts | 129° |
| 2026-05-04 14:15 | 49.36453 | 20.72602 | 35221 ft | 461 kts | 135° |
| 2026-05-04 14:15 | 49.31848 | 20.79318 | 35721 ft | 462 kts | 136° |
| 2026-05-04 14:16 | 49.27219 | 20.86135 | 36301 ft | 459 kts | 135° |
| 2026-05-04 14:16 | 49.24921 | 20.89551 | 36552 ft | 459 kts | 135° |
| 2026-05-04 14:17 | 49.20352 | 20.96359 | 37133 ft | 457 kts | 135° |
| 2026-05-04 14:17 | 49.18070 | 20.99751 | 37379 ft | 457 kts | 135° |
| 2026-05-04 14:17 | 49.13405 | 21.06263 | 37856 ft | 457 kts | 144° |
| 2026-05-04 14:18 | 49.10685 | 21.08767 | 38116 ft | 456 kts | 154° |
| 2026-05-04 14:18 | 49.04690 | 21.11787 | 38695 ft | 453 kts | 168° |
| 2026-05-04 14:19 | 48.98567 | 21.13855 | 39036 ft | 450 kts | 167° |
| 2026-05-04 14:19 | 48.92484 | 21.16058 | 39043 ft | 447 kts | 166° |
| 2026-05-04 14:20 | 48.86447 | 21.18259 | 39069 ft | 447 kts | 166° |
| 2026-05-04 14:20 | 48.80371 | 21.20463 | 39082 ft | 451 kts | 166° |
| 2026-05-04 14:21 | 48.71234 | 21.23762 | 39071 ft | 445 kts | 166° |
| 2026-05-04 14:21 | 48.65170 | 21.25773 | 39090 ft | 448 kts | 170° |
| 2026-05-04 14:22 | 48.59027 | 21.27349 | 39087 ft | 453 kts | 170° |
| 2026-05-04 14:22 | 48.52772 | 21.29008 | 39078 ft | 458 kts | 169° |
| 2026-05-04 14:23 | 48.43520 | 21.32986 | 39069 ft | 463 kts | 162° |
| 2026-05-04 14:24 | 48.37411 | 21.35888 | 39056 ft | 461 kts | 162° |
| 2026-05-04 14:24 | 48.31311 | 21.38707 | 39050 ft | 454 kts | 163° |
| 2026-05-04 14:25 | 48.25271 | 21.41450 | 39056 ft | 452 kts | 163° |
| 2026-05-04 14:25 | 48.16291 | 21.45503 | 39072 ft | 450 kts | 163° |
| 2026-05-04 14:26 | 48.10283 | 21.48209 | 39077 ft | 451 kts | 163° |
| 2026-05-04 14:26 | 48.04268 | 21.50913 | 39077 ft | 451 kts | 163° |
| 2026-05-04 14:27 | 47.98246 | 21.53614 | 39079 ft | 453 kts | 163° |
| 2026-05-04 14:27 | 47.92190 | 21.56323 | 39080 ft | 454 kts | 163° |
| 2026-05-04 14:28 | 47.86164 | 21.59013 | 39076 ft | 455 kts | 163° |
| 2026-05-04 14:28 | 47.80082 | 21.61722 | 39079 ft | 457 kts | 163° |
| 2026-05-04 14:29 | 47.67870 | 21.67131 | 39080 ft | 458 kts | 163° |
| 2026-05-04 14:30 | 47.61747 | 21.69834 | 39078 ft | 459 kts | 163° |
| 2026-05-04 14:31 | 47.52595 | 21.73864 | 39073 ft | 459 kts | 163° |
| 2026-05-04 14:32 | 47.40351 | 21.79232 | 39081 ft | 458 kts | 163° |
| 2026-05-04 14:32 | 47.34234 | 21.81904 | 39080 ft | 457 kts | 163° |
| 2026-05-04 14:33 | 47.28155 | 21.84554 | 39078 ft | 457 kts | 163° |
| 2026-05-04 14:33 | 47.22065 | 21.87200 | 39095 ft | 456 kts | 163° |
| 2026-05-04 14:34 | 47.15969 | 21.89836 | 39101 ft | 455 kts | 163° |
| 2026-05-04 14:34 | 47.09898 | 21.92456 | 39104 ft | 455 kts | 163° |
| 2026-05-04 14:35 | 47.03818 | 21.95075 | 39102 ft | 455 kts | 163° |
| 2026-05-04 14:35 | 46.97779 | 21.97670 | 39106 ft | 455 kts | 163° |
| 2026-05-04 14:36 | 46.91700 | 22.00277 | 39099 ft | 455 kts | 163° |
| 2026-05-04 14:36 | 46.85625 | 22.02876 | 39097 ft | 455 kts | 163° |
| 2026-05-04 14:37 | 46.79550 | 22.05468 | 39094 ft | 455 kts | 163° |
| 2026-05-04 14:37 | 46.73462 | 22.08060 | 39094 ft | 455 kts | 163° |
| 2026-05-04 14:38 | 46.67424 | 22.10626 | 39090 ft | 455 kts | 163° |
| 2026-05-04 14:38 | 46.61339 | 22.13204 | 39092 ft | 455 kts | 163° |
| 2026-05-04 14:39 | 46.55237 | 22.15784 | 39091 ft | 456 kts | 163° |
| 2026-05-04 14:39 | 46.49147 | 22.18353 | 39089 ft | 456 kts | 163° |
| 2026-05-04 14:40 | 46.40024 | 22.22190 | 39088 ft | 456 kts | 163° |
| 2026-05-04 14:40 | 46.33909 | 22.24754 | 39087 ft | 457 kts | 163° |
| 2026-05-04 14:41 | 46.27803 | 22.27309 | 39085 ft | 457 kts | 163° |
| 2026-05-04 14:42 | 46.15584 | 22.32403 | 39079 ft | 458 kts | 163° |
| 2026-05-04 14:42 | 46.09460 | 22.34948 | 39085 ft | 458 kts | 163° |
| 2026-05-04 14:43 | 46.03344 | 22.37482 | 39079 ft | 458 kts | 163° |
| 2026-05-04 14:43 | 45.97219 | 22.40015 | 39084 ft | 457 kts | 163° |
| 2026-05-04 14:44 | 45.91102 | 22.42540 | 39074 ft | 457 kts | 163° |
| 2026-05-04 14:44 | 45.85031 | 22.45039 | 39078 ft | 457 kts | 163° |
| 2026-05-04 14:45 | 45.78916 | 22.47551 | 39073 ft | 456 kts | 163° |
| 2026-05-04 14:45 | 45.72815 | 22.50051 | 39080 ft | 456 kts | 163° |
| 2026-05-04 14:46 | 45.66715 | 22.52545 | 39085 ft | 455 kts | 163° |
| 2026-05-04 14:46 | 45.60611 | 22.55035 | 39083 ft | 455 kts | 163° |
| 2026-05-04 14:47 | 45.54503 | 22.57521 | 39091 ft | 457 kts | 163° |
| 2026-05-04 14:47 | 45.48387 | 22.60004 | 39086 ft | 457 kts | 163° |
| 2026-05-04 14:48 | 45.42293 | 22.62474 | 39084 ft | 458 kts | 163° |
| 2026-05-04 14:48 | 45.36163 | 22.64952 | 39081 ft | 458 kts | 163° |
| 2026-05-04 14:49 | 45.30023 | 22.67429 | 39077 ft | 458 kts | 163° |
| 2026-05-04 14:49 | 45.23888 | 22.69898 | 39069 ft | 459 kts | 163° |
| 2026-05-04 14:50 | 45.17742 | 22.72366 | 39068 ft | 459 kts | 163° |
| 2026-05-04 14:50 | 45.11595 | 22.74828 | 39065 ft | 459 kts | 163° |
| 2026-05-04 14:51 | 45.05483 | 22.77272 | 39055 ft | 459 kts | 163° |
| 2026-05-04 14:51 | 44.99333 | 22.79725 | 39045 ft | 459 kts | 163° |
| 2026-05-04 14:52 | 44.93176 | 22.82175 | 39035 ft | 459 kts | 163° |
| 2026-05-04 14:52 | 44.87017 | 22.84621 | 39028 ft | 459 kts | 163° |
| 2026-05-04 14:53 | 44.80862 | 22.87059 | 39030 ft | 459 kts | 163° |
| 2026-05-04 14:53 | 44.74705 | 22.89493 | 39027 ft | 459 kts | 163° |
| 2026-05-04 14:54 | 44.68590 | 22.91906 | 39034 ft | 459 kts | 163° |
| 2026-05-04 14:54 | 44.62430 | 22.94330 | 39033 ft | 459 kts | 163° |
| 2026-05-04 14:55 | 44.56281 | 22.96745 | 39033 ft | 459 kts | 163° |
| 2026-05-04 14:55 | 44.50109 | 22.99164 | 39031 ft | 459 kts | 163° |
| 2026-05-04 14:56 | 44.43953 | 23.01571 | 39032 ft | 459 kts | 163° |
| 2026-05-04 14:56 | 44.37831 | 23.03959 | 39027 ft | 459 kts | 163° |
| 2026-05-04 14:57 | 44.31668 | 23.06359 | 39034 ft | 459 kts | 163° |
| 2026-05-04 14:57 | 44.25522 | 23.08746 | 39045 ft | 458 kts | 163° |
| 2026-05-04 14:58 | 44.19379 | 23.11127 | 39044 ft | 458 kts | 163° |
| 2026-05-04 14:58 | 44.14262 | 23.13107 | 39037 ft | 458 kts | 163° |
| 2026-05-04 14:59 | 44.08150 | 23.15467 | 39045 ft | 458 kts | 163° |
| 2026-05-04 15:00 | 43.98933 | 23.19016 | 39040 ft | 458 kts | 163° |
| 2026-05-04 15:00 | 43.92785 | 23.21378 | 39047 ft | 458 kts | 163° |
| 2026-05-04 15:01 | 43.83542 | 23.24919 | 39051 ft | 459 kts | 163° |
| 2026-05-04 15:01 | 43.77394 | 23.27320 | 39054 ft | 459 kts | 163° |
| 2026-05-04 15:02 | 43.71289 | 23.29742 | 39059 ft | 459 kts | 162° |
| 2026-05-04 15:02 | 43.65148 | 23.32172 | 39057 ft | 459 kts | 162° |
| 2026-05-04 15:03 | 43.58989 | 23.34598 | 39059 ft | 460 kts | 163° |
| 2026-05-04 15:03 | 43.52826 | 23.37017 | 39078 ft | 460 kts | 163° |
| 2026-05-04 15:04 | 43.46663 | 23.39429 | 39069 ft | 461 kts | 163° |
| 2026-05-04 15:04 | 43.40490 | 23.41841 | 39080 ft | 461 kts | 163° |
| 2026-05-04 15:05 | 43.34352 | 23.44234 | 39085 ft | 462 kts | 163° |
| 2026-05-04 15:05 | 43.28151 | 23.46646 | 39085 ft | 463 kts | 163° |
| 2026-05-04 15:06 | 43.21935 | 23.49060 | 39094 ft | 464 kts | 163° |
| 2026-05-04 15:07 | 43.12610 | 23.52671 | 39102 ft | 465 kts | 163° |
| 2026-05-04 15:07 | 43.06379 | 23.55077 | 39089 ft | 466 kts | 163° |
| 2026-05-04 15:08 | 43.00138 | 23.57482 | 39097 ft | 466 kts | 163° |
| 2026-05-04 15:08 | 42.93927 | 23.59871 | 39117 ft | 466 kts | 163° |
| 2026-05-04 15:09 | 42.87669 | 23.62272 | 39097 ft | 466 kts | 163° |
| 2026-05-04 15:09 | 42.81422 | 23.64665 | 39103 ft | 465 kts | 163° |
| 2026-05-04 15:10 | 42.72119 | 23.68218 | 39124 ft | 463 kts | 163° |
| 2026-05-04 15:11 | 42.62792 | 23.71770 | 39104 ft | 466 kts | 163° |
| 2026-05-04 15:11 | 42.56537 | 23.74145 | 39100 ft | 468 kts | 163° |
| 2026-05-04 15:12 | 42.50241 | 23.76531 | 39091 ft | 468 kts | 163° |
| 2026-05-04 15:12 | 42.43990 | 23.78895 | 39081 ft | 464 kts | 163° |
| 2026-05-04 15:13 | 42.37821 | 23.81224 | 39089 ft | 463 kts | 163° |
| 2026-05-04 15:13 | 42.31610 | 23.83563 | 39088 ft | 463 kts | 163° |
| 2026-05-04 15:14 | 42.25392 | 23.85901 | 39094 ft | 465 kts | 164° |
| 2026-05-04 15:14 | 42.19126 | 23.88251 | 39092 ft | 467 kts | 164° |
| 2026-05-04 15:15 | 42.12886 | 23.90587 | 39081 ft | 468 kts | 163° |
| 2026-05-04 15:15 | 42.06611 | 23.92931 | 39085 ft | 468 kts | 163° |
| 2026-05-04 15:16 | 41.97171 | 23.96448 | 39081 ft | 469 kts | 164° |
| 2026-05-04 15:17 | 41.87720 | 23.99960 | 39072 ft | 470 kts | 164° |
| 2026-05-04 15:17 | 41.78250 | 24.03466 | 39070 ft | 471 kts | 164° |
| 2026-05-04 15:18 | 41.71966 | 24.05788 | 39072 ft | 471 kts | 164° |
| 2026-05-04 15:19 | 41.62471 | 24.09288 | 39065 ft | 472 kts | 164° |
| 2026-05-04 15:19 | 41.53019 | 24.12967 | 39048 ft | 472 kts | 157° |
| 2026-05-04 15:20 | 41.46982 | 24.16384 | 39051 ft | 471 kts | 155° |
| 2026-05-04 15:20 | 41.40984 | 24.19882 | 39046 ft | 470 kts | 155° |
| 2026-05-04 15:21 | 41.34982 | 24.23338 | 39047 ft | 469 kts | 156° |
| 2026-05-04 15:22 | 41.26020 | 24.28425 | 39040 ft | 469 kts | 156° |
| 2026-05-04 15:22 | 41.17014 | 24.33506 | 39042 ft | 468 kts | 156° |
| 2026-05-04 15:23 | 41.11517 | 24.36601 | 39042 ft | 467 kts | 156° |
| 2026-05-04 15:23 | 41.05534 | 24.39964 | 39041 ft | 467 kts | 156° |
| 2026-05-04 15:24 | 40.93566 | 24.46673 | 39053 ft | 467 kts | 156° |
| 2026-05-04 15:25 | 40.87578 | 24.50020 | 39035 ft | 464 kts | 156° |
| 2026-05-04 15:26 | 40.78781 | 24.55058 | 39047 ft | 459 kts | 156° |
| 2026-05-04 15:26 | 40.70009 | 24.60112 | 39057 ft | 458 kts | 156° |
| 2026-05-04 15:27 | 40.61219 | 24.65144 | 39051 ft | 460 kts | 156° |
| 2026-05-04 15:28 | 40.52400 | 24.70173 | 39055 ft | 462 kts | 156° |
| 2026-05-04 15:29 | 40.43511 | 24.75227 | 39057 ft | 465 kts | 156° |
| 2026-05-04 15:30 | 40.22624 | 24.87046 | 39062 ft | 470 kts | 156° |
| 2026-05-04 15:31 | 40.13601 | 24.92127 | 39064 ft | 470 kts | 156° |
| 2026-05-04 15:32 | 39.98586 | 25.00550 | 39069 ft | 469 kts | 157° |
| 2026-05-04 15:34 | 39.83667 | 25.08880 | 39075 ft | 467 kts | 157° |
| 2026-05-04 15:34 | 39.74714 | 25.13859 | 39075 ft | 466 kts | 157° |
| 2026-05-04 15:35 | 39.65776 | 25.18816 | 39077 ft | 465 kts | 157° |
| 2026-05-04 15:36 | 39.56841 | 25.23758 | 39072 ft | 466 kts | 157° |
| 2026-05-04 15:36 | 39.50873 | 25.27051 | 39075 ft | 466 kts | 158° |
| 2026-05-04 15:37 | 39.44899 | 25.30341 | 39074 ft | 467 kts | 157° |
| 2026-05-04 15:37 | 39.38947 | 25.33612 | 39074 ft | 468 kts | 158° |
| 2026-05-04 15:38 | 39.32951 | 25.36902 | 39078 ft | 469 kts | 158° |
| 2026-05-04 15:38 | 39.26942 | 25.40193 | 39077 ft | 470 kts | 158° |
| 2026-05-04 15:39 | 39.20915 | 25.43487 | 39075 ft | 471 kts | 158° |
| 2026-05-04 15:40 | 39.11850 | 25.48431 | 39078 ft | 472 kts | 158° |
| 2026-05-04 15:40 | 39.05795 | 25.51725 | 39076 ft | 472 kts | 158° |
| 2026-05-04 15:41 | 38.99768 | 25.54998 | 39077 ft | 473 kts | 158° |
| 2026-05-04 15:41 | 38.93703 | 25.58285 | 39076 ft | 473 kts | 158° |
| 2026-05-04 15:42 | 38.87631 | 25.61571 | 39076 ft | 473 kts | 158° |
| 2026-05-04 15:42 | 38.81551 | 25.64854 | 39075 ft | 473 kts | 158° |
| 2026-05-04 15:43 | 38.75479 | 25.68127 | 39075 ft | 473 kts | 158° |
| 2026-05-04 15:43 | 38.69399 | 25.71398 | 39076 ft | 474 kts | 158° |
| 2026-05-04 15:44 | 38.63354 | 25.74644 | 39078 ft | 474 kts | 158° |
| 2026-05-04 15:44 | 38.58253 | 25.77379 | 39077 ft | 474 kts | 158° |
| 2026-05-04 15:45 | 38.52207 | 25.80615 | 39075 ft | 474 kts | 158° |
| 2026-05-04 15:45 | 38.46079 | 25.83889 | 39074 ft | 474 kts | 158° |
| 2026-05-04 15:46 | 38.40029 | 25.87115 | 39075 ft | 474 kts | 158° |
| 2026-05-04 15:46 | 38.33928 | 25.90363 | 39076 ft | 475 kts | 158° |
| 2026-05-04 15:47 | 38.27827 | 25.93604 | 39078 ft | 475 kts | 158° |
| 2026-05-04 15:47 | 38.21712 | 25.96847 | 39074 ft | 476 kts | 158° |
| 2026-05-04 15:48 | 38.15592 | 26.00087 | 39075 ft | 477 kts | 158° |
| 2026-05-04 15:48 | 38.06397 | 26.04944 | 39072 ft | 477 kts | 158° |
| 2026-05-04 15:49 | 38.00253 | 26.08181 | 39070 ft | 478 kts | 158° |
| 2026-05-04 15:49 | 37.94146 | 26.11394 | 39069 ft | 478 kts | 159° |
| 2026-05-04 15:50 | 37.87997 | 26.14622 | 39069 ft | 478 kts | 159° |
| 2026-05-04 15:50 | 37.81848 | 26.17845 | 39066 ft | 478 kts | 159° |
| 2026-05-04 15:51 | 37.75691 | 26.21066 | 39065 ft | 478 kts | 159° |
| 2026-05-04 15:51 | 37.69523 | 26.24288 | 39064 ft | 479 kts | 159° |
| 2026-05-04 15:52 | 37.63369 | 26.27495 | 39075 ft | 479 kts | 159° |
| 2026-05-04 15:52 | 37.57201 | 26.30705 | 39063 ft | 480 kts | 159° |
| 2026-05-04 15:53 | 37.51026 | 26.33912 | 39061 ft | 479 kts | 159° |
| 2026-05-04 15:53 | 37.44889 | 26.37094 | 39059 ft | 479 kts | 159° |
| 2026-05-04 15:54 | 37.38725 | 26.40285 | 39058 ft | 479 kts | 159° |
| 2026-05-04 15:54 | 37.32552 | 26.43474 | 39049 ft | 478 kts | 159° |
| 2026-05-04 15:55 | 37.29463 | 26.45068 | 38746 ft | 485 kts | 159° |
| 2026-05-04 15:55 | 37.26328 | 26.46683 | 38186 ft | 485 kts | 159° |
| 2026-05-04 15:55 | 37.23222 | 26.48283 | 37624 ft | 482 kts | 159° |
| 2026-05-04 15:55 | 37.20118 | 26.49881 | 37052 ft | 480 kts | 159° |
| 2026-05-04 15:56 | 37.17033 | 26.51467 | 36500 ft | 479 kts | 159° |
| 2026-05-04 15:56 | 37.13951 | 26.53050 | 35988 ft | 477 kts | 158° |
| 2026-05-04 15:56 | 37.10891 | 26.54621 | 35475 ft | 475 kts | 158° |
| 2026-05-04 15:56 | 37.07832 | 26.56189 | 34976 ft | 473 kts | 158° |
| 2026-05-04 15:57 | 37.04804 | 26.57741 | 34466 ft | 465 kts | 158° |
| 2026-05-04 15:57 | 37.01835 | 26.59261 | 33957 ft | 456 kts | 158° |
| 2026-05-04 15:57 | 36.98957 | 26.60733 | 33378 ft | 448 kts | 158° |
| 2026-05-04 15:57 | 36.96097 | 26.62194 | 32817 ft | 440 kts | 158° |
| 2026-05-04 15:58 | 36.93323 | 26.63612 | 32265 ft | 433 kts | 157° |
| 2026-05-04 15:58 | 36.90553 | 26.65025 | 31731 ft | 426 kts | 156° |
| 2026-05-04 15:58 | 36.87834 | 26.66410 | 31198 ft | 419 kts | 156° |
| 2026-05-04 15:58 | 36.85233 | 26.67961 | 30665 ft | 410 kts | 143° |
| 2026-05-04 15:59 | 36.83113 | 26.70233 | 30163 ft | 396 kts | 127° |
| 2026-05-04 15:59 | 36.81532 | 26.72983 | 29581 ft | 383 kts | 113° |
| 2026-05-04 15:59 | 36.80432 | 26.75964 | 29017 ft | 377 kts | 109° |
| 2026-05-04 15:59 | 36.79419 | 26.78989 | 28448 ft | 378 kts | 108° |
| 2026-05-04 16:00 | 36.78419 | 26.82018 | 27799 ft | 376 kts | 109° |
| 2026-05-04 16:00 | 36.77426 | 26.84998 | 27064 ft | 376 kts | 109° |
| 2026-05-04 16:00 | 36.76410 | 26.88006 | 26334 ft | 376 kts | 109° |
| 2026-05-04 16:00 | 36.75384 | 26.91008 | 25616 ft | 376 kts | 110° |
| 2026-05-04 16:01 | 36.74349 | 26.94008 | 24916 ft | 377 kts | 111° |
| 2026-05-04 16:01 | 36.73311 | 26.97008 | 24238 ft | 377 kts | 111° |
| 2026-05-04 16:01 | 36.72270 | 27.00007 | 23562 ft | 377 kts | 111° |
| 2026-05-04 16:01 | 36.71231 | 27.02999 | 22949 ft | 372 kts | 111° |
| 2026-05-04 16:02 | 36.70210 | 27.05933 | 22384 ft | 367 kts | 111° |
| 2026-05-04 16:02 | 36.69204 | 27.08826 | 21854 ft | 361 kts | 111° |
| 2026-05-04 16:02 | 36.67228 | 27.14494 | 20817 ft | 352 kts | 110° |
| 2026-05-04 16:03 | 36.66254 | 27.17277 | 20316 ft | 348 kts | 110° |
| 2026-05-04 16:03 | 36.65293 | 27.20019 | 19853 ft | 343 kts | 110° |
| 2026-05-04 16:03 | 36.64344 | 27.22724 | 19411 ft | 339 kts | 110° |
| 2026-05-04 16:03 | 36.63405 | 27.25402 | 18982 ft | 336 kts | 109° |
| 2026-05-04 16:04 | 36.62473 | 27.28058 | 18551 ft | 333 kts | 109° |
| 2026-05-04 16:04 | 36.60624 | 27.33330 | 17631 ft | 335 kts | 109° |
| 2026-05-04 16:04 | 36.59682 | 27.36013 | 17167 ft | 339 kts | 109° |
| 2026-05-04 16:05 | 36.58735 | 27.38709 | 16688 ft | 341 kts | 109° |
| 2026-05-04 16:05 | 36.57782 | 27.41416 | 16238 ft | 342 kts | 109° |
| 2026-05-04 16:05 | 36.55873 | 27.46826 | 15343 ft | 344 kts | 109° |
| 2026-05-04 16:06 | 36.54895 | 27.49593 | 14907 ft | 345 kts | 109° |
| 2026-05-04 16:06 | 36.52396 | 27.56646 | 13735 ft | 328 kts | 109° |
| 2026-05-04 16:07 | 36.51201 | 27.60018 | 13107 ft | 321 kts | 110° |
| 2026-05-04 16:07 | 36.48551 | 27.67495 | 11707 ft | 313 kts | 110° |
| 2026-05-04 16:08 | 36.47668 | 27.69984 | 11302 ft | 316 kts | 111° |
| 2026-05-04 16:08 | 36.44991 | 27.77498 | 10180 ft | 317 kts | 111° |
| 2026-05-04 16:09 | 36.43212 | 27.82478 | 9421 ft | 317 kts | 111° |
| 2026-05-04 16:09 | 36.41424 | 27.87476 | 8652 ft | 315 kts | 111° |
| 2026-05-04 16:10 | 36.39654 | 27.92418 | 7907 ft | 307 kts | 110° |
| 2026-05-04 16:11 | 36.37121 | 27.99483 | 6892 ft | 296 kts | 110° |
| 2026-05-04 16:11 | 36.36300 | 28.01765 | 6582 ft | 290 kts | 109° |
| 2026-05-04 16:12 | 36.35234 | 28.08582 | 6087 ft | 256 kts | 84° |
| 2026-05-04 16:12 | 36.36340 | 28.15146 | 5418 ft | 259 kts | 61° |
| 2026-05-04 16:13 | 36.37714 | 28.19221 | 4899 ft | 252 kts | 60° |
| 2026-05-04 16:13 | 36.39057 | 28.23180 | 4398 ft | 249 kts | 60° |
| 2026-05-04 16:14 | 36.40393 | 28.27132 | 3998 ft | 244 kts | 59° |
| 2026-05-04 16:14 | 36.41705 | 28.30912 | 3641 ft | 237 kts | 59° |
| 2026-05-04 16:15 | 36.43580 | 28.36279 | 3230 ft | 244 kts | 59° |
| 2026-05-04 16:16 | 36.45919 | 28.38570 | 2871 ft | 215 kts | 351° |
| 2026-05-04 16:16 | 36.48060 | 28.34551 | 2394 ft | 222 kts | 262° |
| 2026-05-04 16:17 | 36.47077 | 28.30924 | 2142 ft | 219 kts | 257° |
| 2026-05-04 16:18 | 36.45504 | 28.25775 | 1983 ft | 207 kts | 252° |
| 2026-05-04 16:18 | 36.44991 | 28.24135 | 1951 ft | 199 kts | 259° |
| 2026-05-04 16:19 | 36.43751 | 28.20144 | 1528 ft | 139 kts | 255° |
| 2026-05-04 16:19 | 36.43003 | 28.18117 | 1066 ft | 123 kts | 258° |
| 2026-05-04 16:20 | 36.42181 | 28.14935 | 929 ft | 129 kts | 262° |
| 2026-05-04 16:20 | 36.41685 | 28.12902 | 560 ft | 125 kts | 262° |
| 2026-05-04 16:21 | 36.40930 | 28.09956 | 47 ft | 115 kts | 256° |
| 2026-05-04 16:22 | 36.40544 | 28.08645 | 27 ft | 27 kts | 238° |
| 2026-05-04 16:22 | 36.40444 | 28.08733 | 27 ft | 0 kts | 117° |
| 2026-05-04 16:23 | 36.40416 | 28.08799 | 27 ft | 5 kts | 118° |
| 2026-05-04 16:24 | 36.40406 | 28.09062 | 27 ft | 6 kts | 121° |
| 2026-05-04 16:25 | 36.40370 | 28.09082 | 27 ft | 4 kts | 160° |
| 2026-05-04 16:26 | 36.40356 | 28.09089 | 27 ft | 0 kts | 160° |